Time;durP1;ratioP1;P1;durP2;ratioP2;P2;SDS_P1;SDS_P2;PMS_P1;PMS_P2;Temp;Humidity;BMP_temperature;BMP_pressure;BME280_temperature;BME280_humidity;BME280_pressure;Samples;Min_cycle;Max_cycle;Signal;HPM_P1;HPM_P2
2022/09/14 00:00:00;;;;;;;1.13;0.40;;;16.70;99.90;;;;;;4953299;28;20220;-89
2022/09/14 00:02:26;;;;;;;3.93;0.57;;;16.70;99.90;;;;;;4953309;28;20307;-88
2022/09/14 00:04:51;;;;;;;0.60;0.60;;;16.70;99.90;;;;;;4953270;28;20244;-89
2022/09/14 00:07:17;;;;;;;0.30;0.30;;;16.70;99.90;;;;;;4953550;28;20240;-88
2022/09/14 00:09:44;;;;;;;0.53;0.53;;;16.70;99.90;;;;;;4952581;28;20224;-89
2022/09/14 00:12:10;;;;;;;1.23;0.53;;;16.70;99.90;;;;;;4953604;28;20629;-89
2022/09/14 00:14:36;;;;;;;0.30;0.30;;;16.70;99.90;;;;;;4952809;28;20212;-89
2022/09/14 00:17:02;;;;;;;0.63;0.60;;;16.70;99.90;;;;;;4936053;28;20235;-88
2022/09/14 00:19:28;;;;;;;0.40;0.40;;;16.60;99.90;;;;;;4953902;28;20662;-88
2022/09/14 00:21:57;;;;;;;0.43;0.40;;;16.60;99.90;;;;;;4968774;28;20228;-89
2022/09/14 00:24:25;;;;;;;2.83;0.67;;;16.60;99.90;;;;;;4968377;28;20271;-89
2022/09/14 00:26:51;;;;;;;2.20;0.37;;;16.50;99.90;;;;;;4983829;28;20689;-89
2022/09/14 00:29:18;;;;;;;3.30;0.47;;;16.50;99.90;;;;;;4969149;28;20307;-89
2022/09/14 00:31:44;;;;;;;0.57;0.27;;;16.50;99.90;;;;;;4953615;28;20204;-89
2022/09/14 00:34:14;;;;;;;1.30;0.77;;;16.50;99.90;;;;;;4968815;28;20220;-90
2022/09/14 00:36:46;;;;;;;0.40;0.33;;;16.50;99.90;;;;;;4952741;28;20223;-90
2022/09/14 00:39:12;;;;;;;0.83;0.37;;;16.50;99.90;;;;;;4968639;28;20308;-89
2022/09/14 00:41:42;;;;;;;0.63;0.40;;;16.50;99.90;;;;;;4952551;28;20282;-89
2022/09/14 00:44:11;;;;;;;0.20;0.20;;;16.50;99.90;;;;;;4968450;28;20550;-89
2022/09/14 00:46:39;;;;;;;0.30;0.30;;;16.50;99.90;;;;;;4969158;28;20564;-88
2022/09/14 00:49:09;;;;;;;3.40;0.50;;;16.40;99.90;;;;;;4968486;28;20243;-88
2022/09/14 00:51:40;;;;;;;0.40;0.30;;;16.50;99.90;;;;;;4984078;28;20223;-88
2022/09/14 00:54:06;;;;;;;0.57;0.40;;;16.50;99.90;;;;;;4967959;28;20839;-88
2022/09/14 00:56:32;;;;;;;0.10;0.10;;;16.50;99.90;;;;;;4952885;28;20219;-89
2022/09/14 00:59:04;;;;;;;0.20;0.20;;;16.60;99.90;;;;;;4952471;28;20200;-89
2022/09/14 01:01:30;;;;;;;0.20;0.20;;;16.60;99.90;;;;;;4968901;28;20193;-88
2022/09/14 01:03:55;;;;;;;0.30;0.20;;;16.60;99.90;;;;;;4952255;28;20587;-89
2022/09/14 01:06:40;;;;;;;0.20;0.20;;;16.70;99.90;;;;;;4952177;28;20217;-89
2022/09/14 01:09:21;;;;;;;0.27;0.27;;;16.60;99.90;;;;;;4984441;28;20220;-88
2022/09/14 01:12:11;;;;;;;0.40;0.20;;;16.70;99.90;;;;;;4968217;28;20893;-88
2022/09/14 01:15:03;;;;;;;0.20;0.20;;;16.60;99.90;;;;;;4984087;28;20744;-88
2022/09/14 01:17:57;;;;;;;1.83;0.10;;;16.70;99.90;;;;;;4958230;28;20216;-89
2022/09/14 01:20:31;;;;;;;1.03;0.50;;;16.70;99.90;;;;;;4979798;28;20618;-88
2022/09/14 01:23:11;;;;;;;2.00;0.20;;;16.70;99.90;;;;;;4967904;28;20189;-89
2022/09/14 01:26:07;;;;;;;0.20;0.20;;;16.70;99.90;;;;;;4968707;28;20218;-88
2022/09/14 01:29:00;;;;;;;8.73;0.53;;;16.70;99.90;;;;;;4968536;28;20635;-89
2022/09/14 01:31:44;;;;;;;0.77;0.13;;;16.80;99.90;;;;;;4961563;28;20251;-88
2022/09/14 01:34:30;;;;;;;0.67;0.30;;;16.70;99.90;;;;;;4968944;28;20651;-89
2022/09/14 01:37:18;;;;;;;0.13;0.13;;;16.70;99.90;;;;;;4967699;28;20256;-89
2022/09/14 01:39:55;;;;;;;1.10;0.40;;;16.60;99.90;;;;;;4964760;28;20224;-89
2022/09/14 01:42:25;;;;;;;0.00;0.00;;;16.60;99.90;;;;;;4968152;28;20704;-89
2022/09/14 01:44:55;;;;;;;0.50;0.20;;;16.60;99.90;;;;;;4967296;28;20259;-89
2022/09/14 01:47:30;;;;;;;1.20;0.50;;;16.60;99.90;;;;;;4968124;28;20336;-88
2022/09/14 01:50:10;;;;;;;0.10;0.10;;;16.60;99.90;;;;;;4967848;28;20596;-89
2022/09/14 01:52:45;;;;;;;1.90;0.30;;;16.60;99.90;;;;;;4968026;28;20223;-88
2022/09/14 01:55:43;;;;;;;0.30;0.30;;;16.50;99.90;;;;;;4967754;28;20231;-88
2022/09/14 01:58:08;;;;;;;0.23;0.20;;;16.50;99.90;;;;;;4945552;29;20225;-89
2022/09/14 02:00:38;;;;;;;0.30;0.30;;;16.40;99.90;;;;;;4948324;28;20224;-89
2022/09/14 02:03:11;;;;;;;0.30;0.17;;;16.30;99.90;;;;;;4948031;28;20221;-88
2022/09/14 02:05:49;;;;;;;1.70;0.20;;;16.20;99.90;;;;;;4947609;28;20221;-89
2022/09/14 02:08:15;;;;;;;2.07;0.30;;;16.10;99.90;;;;;;4963847;28;20233;-88
2022/09/14 02:10:41;;;;;;;1.03;0.53;;;16.00;99.90;;;;;;4949192;29;20198;-90
2022/09/14 02:13:08;;;;;;;0.30;0.30;;;16.00;99.90;;;;;;4932750;29;20225;-90
2022/09/14 02:15:35;;;;;;;0.53;0.50;;;16.00;99.90;;;;;;4948596;28;20259;-90
2022/09/14 02:18:01;;;;;;;4.23;0.20;;;16.00;99.90;;;;;;4932409;29;20226;-90
2022/09/14 02:20:58;;;;;;;0.20;0.13;;;16.00;99.90;;;;;;4932534;29;20223;-91
2022/09/14 02:23:24;;;;;;;0.10;0.10;;;15.90;99.90;;;;;;4963767;28;20260;-90
2022/09/14 02:25:51;;;;;;;0.97;0.50;;;15.80;99.90;;;;;;4932872;29;20197;-90
2022/09/14 02:28:17;;;;;;;0.50;0.20;;;15.80;99.90;;;;;;4950778;28;20209;-89
2022/09/14 02:31:09;;;;;;;0.17;0.17;;;15.80;99.90;;;;;;4951745;28;20398;-89
2022/09/14 02:33:58;;;;;;;0.93;0.30;;;15.70;99.90;;;;;;4966391;28;20228;-89
2022/09/14 02:36:38;;;;;;;1.03;0.20;;;15.70;99.90;;;;;;4984506;28;20827;-89
2022/09/14 02:39:45;;;;;;;0.40;0.20;;;15.80;99.90;;;;;;4987539;28;20227;-89
2022/09/14 02:42:11;;;;;;;1.30;0.27;;;15.80;99.90;;;;;;4952338;28;20224;-88
2022/09/14 02:45:06;;;;;;;0.10;0.10;;;15.90;99.90;;;;;;4971065;28;20307;-89
2022/09/14 02:48:17;;;;;;;0.20;0.20;;;15.90;99.90;;;;;;4971150;28;20601;-90
2022/09/14 02:51:11;;;;;;;4.10;0.70;;;16.00;99.90;;;;;;4945245;28;20257;-89
2022/09/14 02:53:37;;;;;;;0.33;0.13;;;16.00;99.90;;;;;;4970483;28;20227;-89
2022/09/14 02:56:07;;;;;;;1.27;0.23;;;16.00;99.90;;;;;;4970858;28;20592;-88
2022/09/14 02:58:38;;;;;;;2.10;0.30;;;16.10;99.90;;;;;;4987194;28;20185;-88
2022/09/14 03:01:06;;;;;;;0.10;0.10;;;16.10;99.90;;;;;;4986337;28;20231;-88
2022/09/14 03:03:31;;;;;;;4.10;0.40;;;16.10;99.90;;;;;;4954738;28;20312;-89
2022/09/14 03:05:57;;;;;;;0.63;0.40;;;16.20;99.90;;;;;;4954379;28;20307;-87
2022/09/14 03:08:25;;;;;;;0.60;0.27;;;16.20;99.90;;;;;;4953719;28;20229;-89
2022/09/14 03:10:51;;;;;;;0.37;0.30;;;16.30;99.90;;;;;;4954213;28;20251;-88
2022/09/14 03:13:17;;;;;;;0.20;0.20;;;16.30;99.90;;;;;;4970020;28;20215;-89
2022/09/14 03:15:42;;;;;;;1.30;0.23;;;16.30;99.90;;;;;;4954199;28;20212;-88
2022/09/14 03:18:09;;;;;;;0.50;0.37;;;16.40;99.90;;;;;;4954020;28;20217;-89
2022/09/14 03:20:35;;;;;;;0.10;0.10;;;16.40;99.90;;;;;;4970574;28;20279;-89
2022/09/14 03:23:02;;;;;;;0.83;0.80;;;16.40;99.90;;;;;;4954040;28;20650;-88
2022/09/14 03:25:28;;;;;;;0.10;0.10;;;16.40;99.90;;;;;;4930604;28;20236;-89
2022/09/14 03:27:57;;;;;;;4.97;0.40;;;16.40;99.90;;;;;;4953847;28;20216;-87
2022/09/14 03:30:22;;;;;;;0.60;0.30;;;16.40;99.90;;;;;;4985620;28;20224;-89
2022/09/14 03:32:49;;;;;;;1.80;0.30;;;16.50;99.90;;;;;;4953529;28;20224;-88
2022/09/14 03:35:15;;;;;;;1.07;0.33;;;16.50;99.90;;;;;;4953991;28;20216;-88
2022/09/14 03:37:42;;;;;;;0.10;0.10;;;16.40;99.90;;;;;;4970548;28;20185;-88
2022/09/14 03:40:10;;;;;;;0.30;0.30;;;16.40;99.90;;;;;;4969190;28;20227;-88
2022/09/14 03:42:40;;;;;;;1.13;0.37;;;16.50;99.90;;;;;;4953719;28;20581;-88
2022/09/14 03:45:06;;;;;;;0.37;0.37;;;16.50;99.90;;;;;;4969577;28;20228;-88
2022/09/14 03:47:32;;;;;;;3.33;0.33;;;16.50;99.90;;;;;;4953395;28;20221;-88
2022/09/14 03:49:58;;;;;;;1.33;0.50;;;16.50;99.90;;;;;;4953362;28;20637;-88
2022/09/14 03:52:24;;;;;;;1.97;0.40;;;16.50;99.90;;;;;;4970219;28;20192;-88
2022/09/14 03:54:49;;;;;;;3.90;0.77;;;16.50;99.90;;;;;;4953201;28;20278;-88
2022/09/14 03:57:15;;;;;;;2.37;0.50;;;16.50;99.90;;;;;;4953470;28;20228;-88
2022/09/14 03:59:41;;;;;;;1.10;0.60;;;16.50;99.90;;;;;;4952897;28;20244;-88
2022/09/14 04:02:07;;;;;;;1.70;0.90;;;16.50;99.90;;;;;;4953011;28;20246;-88
2022/09/14 04:04:32;;;;;;;0.67;0.67;;;16.50;99.90;;;;;;4953673;28;20250;-88
2022/09/14 04:06:58;;;;;;;0.57;0.30;;;16.50;99.90;;;;;;4953203;28;20252;-88
2022/09/14 04:09:24;;;;;;;0.30;0.30;;;16.50;99.90;;;;;;4953265;28;20225;-89
2022/09/14 04:11:50;;;;;;;3.30;0.70;;;16.50;99.90;;;;;;4968978;28;20295;-89
2022/09/14 04:14:16;;;;;;;2.70;0.50;;;16.50;99.90;;;;;;4952337;28;20581;-88
2022/09/14 04:16:43;;;;;;;1.30;0.40;;;16.50;99.90;;;;;;4953733;28;20193;-88
2022/09/14 04:19:11;;;;;;;1.40;0.40;;;16.50;99.90;;;;;;4952883;28;20216;-88
2022/09/14 04:21:37;;;;;;;0.57;0.53;;;16.50;99.90;;;;;;4969194;28;20327;-88
2022/09/14 04:24:03;;;;;;;1.20;0.33;;;16.50;99.90;;;;;;4968926;28;20319;-88
2022/09/14 04:26:30;;;;;;;3.00;0.60;;;16.50;99.90;;;;;;4968799;28;20354;-88
2022/09/14 04:28:56;;;;;;;0.30;0.30;;;16.50;99.90;;;;;;4968900;28;20196;-88
2022/09/14 04:31:22;;;;;;;5.87;0.77;;;16.50;99.90;;;;;;4968972;28;20540;-87
2022/09/14 04:33:50;;;;;;;4.77;1.47;;;16.50;99.90;;;;;;4968712;28;20704;-88
2022/09/14 04:36:22;;;;;;;0.50;0.50;;;16.50;99.90;;;;;;4952562;28;20367;-87
2022/09/14 04:38:52;;;;;;;0.30;0.30;;;16.50;99.90;;;;;;4968710;28;21217;-88
2022/09/14 04:41:19;;;;;;;5.60;0.50;;;16.40;99.90;;;;;;4968195;28;20239;-89
2022/09/14 04:43:46;;;;;;;6.23;0.77;;;16.40;99.90;;;;;;4969202;28;20212;-88
2022/09/14 04:46:18;;;;;;;3.60;0.50;;;16.40;99.90;;;;;;4968108;28;20232;-88
2022/09/14 04:48:44;;;;;;;2.50;0.63;;;16.40;99.90;;;;;;4967778;28;20223;-87
2022/09/14 04:51:15;;;;;;;2.37;0.63;;;16.40;99.90;;;;;;4952082;28;20208;-87
2022/09/14 04:53:42;;;;;;;1.57;0.47;;;16.30;99.90;;;;;;4968220;28;20334;-88
2022/09/14 04:56:10;;;;;;;0.53;0.53;;;16.30;99.90;;;;;;4952337;28;20192;-88
2022/09/14 04:58:38;;;;;;;0.93;0.80;;;16.30;99.90;;;;;;4952617;28;20733;-88
2022/09/14 05:01:10;;;;;;;1.17;0.67;;;16.20;99.90;;;;;;4966873;28;20697;-87
2022/09/14 05:03:38;;;;;;;1.63;0.80;;;16.30;99.90;;;;;;4968175;28;20748;-89
2022/09/14 05:06:09;;;;;;;1.07;0.57;;;16.30;99.90;;;;;;4981017;28;20302;-86
2022/09/14 05:08:37;;;;;;;4.60;0.90;;;16.20;99.90;;;;;;4983019;28;20267;-87
2022/09/14 05:11:03;;;;;;;1.60;0.40;;;16.20;99.90;;;;;;4951549;28;20209;-87
2022/09/14 05:13:29;;;;;;;0.47;0.33;;;16.20;99.90;;;;;;4984041;28;20279;-87
2022/09/14 05:16:03;;;;;;;3.50;0.60;;;16.20;99.90;;;;;;4951747;28;20248;-88
2022/09/14 05:18:28;;;;;;;0.73;0.50;;;16.20;99.90;;;;;;4983464;28;20771;-87
2022/09/14 05:20:54;;;;;;;1.13;0.70;;;16.20;99.90;;;;;;4950829;28;20217;-88
2022/09/14 05:23:20;;;;;;;4.23;0.50;;;16.20;99.90;;;;;;4951807;28;20216;-87
2022/09/14 05:25:52;;;;;;;1.80;0.60;;;16.20;99.90;;;;;;4952271;28;20185;-88
2022/09/14 05:28:17;;;;;;;0.43;0.40;;;16.20;99.90;;;;;;4983202;28;20709;-88
2022/09/14 05:30:43;;;;;;;1.30;0.50;;;16.20;99.90;;;;;;4951736;28;20314;-88
2022/09/14 05:33:09;;;;;;;1.23;0.73;;;16.20;99.90;;;;;;4951663;28;20693;-88
2022/09/14 05:35:34;;;;;;;1.13;0.87;;;16.20;99.90;;;;;;4935327;28;20216;-88
2022/09/14 05:38:00;;;;;;;3.30;0.93;;;16.20;99.90;;;;;;4951385;28;20193;-88
2022/09/14 05:40:26;;;;;;;3.90;0.80;;;16.20;99.90;;;;;;4952053;28;20196;-88
2022/09/14 05:42:51;;;;;;;3.60;0.63;;;16.10;99.90;;;;;;4967420;28;20217;-87
2022/09/14 05:45:17;;;;;;;0.50;0.50;;;16.10;99.90;;;;;;4951011;28;20225;-87
2022/09/14 05:47:43;;;;;;;0.70;0.43;;;16.20;99.90;;;;;;4966127;28;21174;-87
2022/09/14 05:50:09;;;;;;;3.03;0.43;;;16.20;99.90;;;;;;4951121;28;20197;-87
2022/09/14 05:52:35;;;;;;;1.27;0.67;;;16.20;99.90;;;;;;4967803;28;20185;-87
2022/09/14 05:55:01;;;;;;;0.50;0.50;;;16.20;99.90;;;;;;4934563;28;20220;-87
2022/09/14 05:57:26;;;;;;;0.70;0.63;;;16.30;99.90;;;;;;4967237;28;20736;-88
2022/09/14 05:59:52;;;;;;;1.63;0.87;;;16.40;99.90;;;;;;4967530;28;20316;-88
2022/09/14 06:02:18;;;;;;;7.17;0.80;;;16.40;99.90;;;;;;4951256;28;20705;-87
2022/09/14 06:04:44;;;;;;;1.10;0.67;;;16.60;99.90;;;;;;4951228;28;20196;-87
2022/09/14 06:07:10;;;;;;;0.57;0.57;;;16.70;99.90;;;;;;4950807;28;20232;-91
2022/09/14 06:09:36;;;;;;;0.67;0.60;;;16.80;99.90;;;;;;4951428;28;20776;-89
2022/09/14 06:12:02;;;;;;;1.33;0.80;;;16.90;99.90;;;;;;4953429;28;20216;-89
2022/09/14 06:14:28;;;;;;;5.13;0.90;;;16.90;99.90;;;;;;4970635;28;20221;-88
2022/09/14 06:16:54;;;;;;;4.20;0.80;;;17.00;99.90;;;;;;4952253;28;20188;-88
2022/09/14 06:19:19;;;;;;;0.57;0.37;;;17.00;99.90;;;;;;4954979;28;20685;-87
2022/09/14 06:21:45;;;;;;;2.93;0.60;;;17.10;99.90;;;;;;4952563;28;20216;-88
2022/09/14 06:24:11;;;;;;;2.77;1.13;;;17.10;99.90;;;;;;4954475;28;20232;-88
2022/09/14 06:26:38;;;;;;;1.10;0.87;;;17.10;99.90;;;;;;4953521;28;20220;-87
2022/09/14 06:29:04;;;;;;;0.83;0.50;;;17.20;99.90;;;;;;4954271;28;20197;-87
2022/09/14 06:31:30;;;;;;;3.20;1.30;;;17.20;99.90;;;;;;4955241;28;20193;-88
2022/09/14 06:33:56;;;;;;;3.60;0.80;;;17.20;99.90;;;;;;4986467;28;20244;-89
2022/09/14 06:36:24;;;;;;;2.13;0.77;;;17.30;99.90;;;;;;4969729;28;20781;-83
2022/09/14 06:38:51;;;;;;;2.63;0.97;;;17.40;99.90;;;;;;4968983;28;20228;-85
2022/09/14 06:41:20;;;;;;;0.93;0.70;;;17.40;99.90;;;;;;4970531;28;20795;-85
2022/09/14 06:43:46;;;;;;;4.13;0.57;;;17.50;99.90;;;;;;4986596;28;20208;-84
2022/09/14 06:46:22;;;;;;;4.13;0.80;;;17.50;99.90;;;;;;4952039;28;20988;-86
2022/09/14 06:48:59;;;;;;;1.67;0.60;;;17.50;99.90;;;;;;4968739;28;20220;-84
2022/09/14 06:51:34;;;;;;;0.57;0.40;;;17.50;99.90;;;;;;4985159;28;20308;-85
2022/09/14 06:54:00;;;;;;;1.53;1.00;;;17.50;99.90;;;;;;4969683;28;20319;-84
2022/09/14 06:56:28;;;;;;;1.70;0.43;;;17.60;99.90;;;;;;4969533;28;20223;-84
2022/09/14 06:58:54;;;;;;;0.20;0.20;;;17.70;99.90;;;;;;4970158;28;20732;-85
2022/09/14 07:01:20;;;;;;;0.50;0.50;;;17.90;99.90;;;;;;4969929;28;20227;-84
2022/09/14 07:03:47;;;;;;;2.33;0.70;;;18.00;99.90;;;;;;4953223;28;20226;-85
2022/09/14 07:06:16;;;;;;;1.10;0.60;;;18.10;99.90;;;;;;4969606;28;20689;-85
2022/09/14 07:08:43;;;;;;;2.27;0.60;;;18.40;99.90;;;;;;4968415;28;20229;-85
2022/09/14 07:11:10;;;;;;;1.33;0.57;;;18.70;99.90;;;;;;4968913;28;20197;-87
2022/09/14 07:13:36;;;;;;;3.17;0.60;;;19.40;99.90;;;;;;4969599;28;20185;-88
2022/09/14 07:16:04;;;;;;;12.20;0.77;;;20.20;99.90;;;;;;4953506;28;20227;-87
2022/09/14 07:18:31;;;;;;;0.70;0.60;;;21.10;99.90;;;;;;4953331;28;20213;-86
2022/09/14 07:21:06;;;;;;;0.77;0.67;;;21.90;99.90;;;;;;4985188;28;20220;-86
2022/09/14 07:23:35;;;;;;;3.00;0.67;;;22.70;99.90;;;;;;4984336;28;20220;-85
2022/09/14 07:26:12;;;;;;;0.70;0.30;;;23.00;99.90;;;;;;4953343;28;20546;-86
2022/09/14 07:28:39;;;;;;;0.50;0.50;;;22.40;99.90;;;;;;4969777;28;20626;-85
2022/09/14 07:31:18;;;;;;;0.97;0.50;;;22.00;99.90;;;;;;4952807;28;20271;-85
2022/09/14 07:33:44;;;;;;;1.77;0.40;;;21.70;99.90;;;;;;4968980;28;21290;-84
2022/09/14 07:36:11;;;;;;;0.70;0.47;;;21.30;99.90;;;;;;4952702;28;20221;-86
2022/09/14 07:38:38;;;;;;;2.23;0.53;;;21.40;99.90;;;;;;4968959;28;20648;-85
2022/09/14 07:41:04;;;;;;;2.40;0.57;;;22.00;99.90;;;;;;4968617;28;20207;-84
2022/09/14 07:43:30;;;;;;;2.77;0.70;;;24.20;99.90;;;;;;4969234;28;20536;-87
2022/09/14 07:45:56;;;;;;;1.20;0.57;;;25.50;99.90;;;;;;4952721;28;20769;-88
2022/09/14 07:48:22;;;;;;;0.52;0.52;;;26.50;99.90;;;;;;4952729;28;20307;-86
2022/09/14 07:50:57;;;;;;;0.40;0.40;;;27.70;99.90;;;;;;4952306;28;20307;-85
2022/09/14 07:53:23;;;;;;;3.45;0.70;;;27.30;99.90;;;;;;4969821;28;20808;-88
2022/09/14 07:55:49;;;;;;;1.70;0.60;;;25.40;99.90;;;;;;4953030;28;20271;-86
2022/09/14 07:58:15;;;;;;;0.75;0.60;;;25.70;99.90;;;;;;4952342;28;20255;-87
2022/09/14 08:00:40;;;;;;;3.25;0.80;;;25.10;99.90;;;;;;4952635;28;20217;-87
2022/09/14 08:03:07;;;;;;;3.13;0.70;;;25.40;99.90;;;;;;4952739;28;20227;-89
2022/09/14 08:05:33;;;;;;;1.20;0.75;;;26.70;99.90;;;;;;4952732;28;20290;-85
2022/09/14 08:07:58;;;;;;;1.35;0.50;;;27.80;99.90;;;;;;4968522;28;20689;-86
2022/09/14 08:10:25;;;;;;;0.30;0.30;;;29.60;99.90;;;;;;4969105;28;20204;-86
2022/09/14 08:12:52;;;;;;;0.77;0.50;;;30.80;99.90;;;;;;4952234;28;21091;-86
2022/09/14 08:15:19;;;;;;;0.68;0.47;;;30.70;99.90;;;;;;4968782;28;20227;-86
2022/09/14 08:17:45;;;;;;;1.10;0.70;;;30.20;99.90;;;;;;4944500;28;20600;-86
2022/09/14 08:20:10;;;;;;;0.50;0.35;;;29.90;99.90;;;;;;4968442;28;20196;-86
2022/09/14 08:22:36;;;;;;;1.80;0.65;;;28.70;99.90;;;;;;4953122;28;20208;-89
2022/09/14 08:25:05;;;;;;;0.35;0.35;;;27.70;99.90;;;;;;4951971;28;20351;-87
2022/09/14 08:27:30;;;;;;;0.93;0.52;;;26.70;99.90;;;;;;4952495;28;20308;-87
2022/09/14 08:29:56;;;;;;;1.48;0.82;;;24.80;99.90;;;;;;4952300;28;20643;-86
2022/09/14 08:32:22;;;;;;;3.80;0.60;;;24.20;99.90;;;;;;4952093;28;20688;-86
2022/09/14 08:34:48;;;;;;;1.27;0.50;;;24.50;99.90;;;;;;4952098;28;20196;-85
2022/09/14 08:37:14;;;;;;;4.43;0.70;;;24.80;99.90;;;;;;4951862;28;20217;-87
2022/09/14 08:39:39;;;;;;;0.82;0.40;;;24.80;99.90;;;;;;4951299;28;20248;-85
2022/09/14 08:42:13;;;;;;;2.60;1.13;;;24.50;99.90;;;;;;4951691;28;20321;-87
2022/09/14 08:45:04;;;;;;;1.00;0.40;;;24.30;99.90;;;;;;4967903;28;20275;-87
2022/09/14 08:47:37;;;;;;;2.25;0.70;;;24.40;99.90;;;;;;4947233;28;20680;-85
2022/09/14 08:50:09;;;;;;;0.22;0.22;;;24.70;99.90;;;;;;4967884;28;20193;-85
2022/09/14 08:52:47;;;;;;;1.50;0.47;;;25.60;99.90;;;;;;4968340;28;20279;-85
2022/09/14 08:55:32;;;;;;;3.20;0.85;;;25.80;99.90;;;;;;4967612;28;20696;-85
2022/09/14 09:01:45;;;;;;;1.98;0.60;;;25.70;99.90;;;;;;4969592;28;20223;-87
2022/09/14 09:04:31;;;;;;;3.25;1.10;;;25.20;99.90;;;;;;4968358;28;20224;-88
2022/09/14 09:07:01;;;;;;;1.48;0.63;;;25.50;99.90;;;;;;4968033;28;20597;-87
2022/09/14 09:09:56;;;;;;;4.25;1.02;;;26.60;99.90;;;;;;4985216;28;20599;-87
2022/09/14 09:12:44;;;;;;;2.70;1.73;;;26.90;99.90;;;;;;4963506;28;20216;-88
2022/09/14 09:15:24;;;;;;;3.05;0.60;;;26.90;99.90;;;;;;4968501;28;20224;-88
2022/09/14 09:17:55;;;;;;;2.40;0.47;;;26.80;99.90;;;;;;4969359;28;20209;-88
2022/09/14 09:20:26;;;;;;;1.85;0.70;;;26.50;99.90;;;;;;4970505;28;20735;-88
2022/09/14 09:23:19;;;;;;;2.38;0.68;;;25.60;99.90;;;;;;4969874;28;20236;-89
2022/09/14 09:26:05;;;;;;;2.53;0.52;;;24.20;99.90;;;;;;4968783;28;20729;-88
2022/09/14 09:28:32;;;;;;;2.05;0.57;;;23.40;99.90;;;;;;4968638;28;20575;-90
2022/09/14 09:31:04;;;;;;;4.30;0.55;;;23.40;99.90;;;;;;4968058;28;20690;-87
2022/09/14 09:33:30;;;;;;;1.52;0.55;;;22.70;99.90;;;;;;4967135;28;20288;-89
2022/09/14 09:35:56;;;;;;;1.63;0.73;;;22.00;99.90;;;;;;4968691;28;21220;-88
2022/09/14 09:38:25;;;;;;;2.63;0.63;;;21.70;99.90;;;;;;4985390;28;20212;-88
2022/09/14 09:41:14;;;;;;;5.50;1.33;;;21.80;99.90;;;;;;4968912;28;20173;-88
2022/09/14 09:44:10;;;;;;;4.47;1.10;;;21.40;99.90;;;;;;4949861;28;20239;-89
2022/09/14 09:46:51;;;;;;;3.70;0.70;;;21.60;99.90;;;;;;4969829;28;20598;-89
2022/09/14 09:49:35;;;;;;;4.10;0.73;;;21.70;99.90;;;;;;4974005;28;20223;-88
2022/09/14 09:52:15;;;;;;;1.25;0.60;;;22.10;99.90;;;;;;4972937;28;20697;-90
2022/09/14 09:54:53;;;;;;;5.57;0.65;;;22.60;99.90;;;;;;4972497;28;20227;-90
2022/09/14 09:57:32;;;;;;;0.50;0.50;;;23.10;99.90;;;;;;4972187;28;20220;-89
2022/09/14 10:00:08;;;;;;;4.55;1.33;;;23.70;99.90;;;;;;4973067;28;20215;-88
2022/09/14 10:02:34;;;;;;;2.03;1.00;;;24.20;99.90;;;;;;4988194;28;20247;-88
2022/09/14 10:05:09;;;;;;;1.13;0.60;;;24.00;99.90;;;;;;4956467;28;20723;-87
2022/09/14 10:07:47;;;;;;;1.95;0.88;;;23.80;99.90;;;;;;4972547;28;20314;-87
2022/09/14 10:10:14;;;;;;;2.25;0.80;;;23.20;99.90;;;;;;4988228;28;20711;-90
2022/09/14 10:12:52;;;;;;;0.55;0.50;;;23.00;99.90;;;;;;4987717;28;20561;-87
2022/09/14 10:15:28;;;;;;;1.63;0.68;;;22.90;99.90;;;;;;4972335;28;20570;-87
2022/09/14 10:18:11;;;;;;;1.63;0.70;;;23.30;99.90;;;;;;4971576;28;20282;-88
2022/09/14 10:20:52;;;;;;;1.33;0.70;;;22.40;99.90;;;;;;4971986;28;20295;-89
2022/09/14 10:23:18;;;;;;;2.40;0.65;;;21.70;99.90;;;;;;4971855;28;20310;-87
2022/09/14 10:25:45;;;;;;;2.10;0.68;;;21.30;99.90;;;;;;4973527;28;20217;-91
2022/09/14 10:28:24;;;;;;;2.88;0.50;;;21.70;99.90;;;;;;4988934;28;20523;-88
2022/09/14 10:31:05;;;;;;;1.48;0.60;;;22.30;99.90;;;;;;4974167;28;20239;-87
2022/09/14 10:33:31;;;;;;;2.05;0.65;;;23.10;99.90;;;;;;4988663;28;21013;-88
2022/09/14 10:36:00;;;;;;;1.13;0.80;;;23.20;99.90;;;;;;4955939;28;20205;-88
2022/09/14 10:38:33;;;;;;;3.15;1.10;;;23.50;99.90;;;;;;4987986;28;20705;-88
2022/09/14 10:41:42;;;;;;;1.95;0.68;;;24.10;99.90;;;;;;4971865;28;20189;-88
2022/09/14 10:44:32;;;;;;;3.80;0.68;;;24.00;99.90;;;;;;4960683;28;20260;-88
2022/09/14 10:47:26;;;;;;;0.82;0.40;;;25.70;99.90;;;;;;4970424;28;20263;-88
2022/09/14 10:49:54;;;;;;;0.50;0.50;;;26.20;99.90;;;;;;4961650;28;20769;-89
2022/09/14 10:52:32;;;;;;;1.67;0.70;;;26.80;99.90;;;;;;4972619;28;20708;-89
2022/09/14 10:55:30;;;;;;;1.35;0.90;;;27.20;99.90;;;;;;4971775;28;20220;-89
2022/09/14 10:58:23;;;;;;;4.00;0.95;;;26.40;99.90;;;;;;4985825;28;20209;-88
2022/09/14 11:01:07;;;;;;;4.45;0.80;;;26.90;99.90;;;;;;4986465;28;20220;-88
2022/09/14 11:03:46;;;;;;;0.98;0.50;;;26.60;99.90;;;;;;4972193;28;20220;-89
2022/09/14 11:06:30;;;;;;;1.15;0.50;;;26.80;99.90;;;;;;4987934;28;20634;-88
2022/09/14 11:09:01;;;;;;;0.90;0.60;;;26.60;99.90;;;;;;4988291;28;20669;-89
2022/09/14 11:12:01;;;;;;;2.00;0.65;;;27.10;99.90;;;;;;4987899;28;20220;-90
2022/09/14 11:14:36;;;;;;;1.05;0.55;;;24.90;99.90;;;;;;4971017;28;20280;-90
2022/09/14 11:17:02;;;;;;;1.75;0.55;;;23.00;99.90;;;;;;4970781;28;20227;-88
2022/09/14 11:19:40;;;;;;;1.88;0.70;;;22.40;99.90;;;;;;4973094;28;20694;-88
2022/09/14 11:22:24;;;;;;;1.05;0.40;;;22.30;99.90;;;;;;4986550;28;20212;-87
2022/09/14 11:25:03;;;;;;;2.70;0.63;;;22.10;99.90;;;;;;4972213;28;20228;-88
2022/09/14 11:27:44;;;;;;;2.60;0.57;;;22.30;99.90;;;;;;4971317;28;20196;-88
2022/09/14 11:30:15;;;;;;;1.75;0.60;;;22.60;99.90;;;;;;4987651;28;20180;-88
2022/09/14 11:33:03;;;;;;;3.63;0.52;;;23.10;99.90;;;;;;4986365;28;20220;-90
2022/09/14 11:35:53;;;;;;;1.30;0.73;;;22.90;99.90;;;;;;4970913;28;20303;-89
2022/09/14 11:38:23;;;;;;;1.80;0.70;;;23.20;99.90;;;;;;4986633;28;20575;-87
2022/09/14 11:41:05;;;;;;;0.60;0.60;;;23.50;99.90;;;;;;4971054;28;20219;-87
2022/09/14 11:43:56;;;;;;;0.43;0.43;;;23.50;99.90;;;;;;4970876;28;20228;-87
2022/09/14 11:46:33;;;;;;;0.55;0.50;;;22.90;99.90;;;;;;4970686;28;20237;-87
2022/09/14 11:49:24;;;;;;;3.45;0.70;;;22.60;99.90;;;;;;4970282;28;20216;-87
2022/09/14 11:52:12;;;;;;;1.35;0.43;;;23.70;99.90;;;;;;4970214;28;20259;-88
2022/09/14 11:54:41;;;;;;;2.17;0.50;;;23.90;99.90;;;;;;4970353;28;20296;-86
2022/09/14 11:57:13;;;;;;;1.27;0.43;;;23.60;99.90;;;;;;4953620;28;20236;-87
2022/09/14 11:59:38;;;;;;;1.70;0.60;;;23.50;99.90;;;;;;4969439;28;20309;-86
2022/09/14 12:02:22;;;;;;;1.92;0.82;;;23.10;99.90;;;;;;4968012;28;20228;-87
2022/09/14 12:05:04;;;;;;;4.68;0.73;;;22.70;99.90;;;;;;4970365;28;20640;-86
2022/09/14 12:07:54;;;;;;;1.10;0.60;;;22.50;99.90;;;;;;4984791;28;20713;-86
2022/09/14 12:10:21;;;;;;;0.85;0.57;;;22.30;99.90;;;;;;4963936;28;20228;-87
2022/09/14 12:12:55;;;;;;;0.35;0.30;;;22.60;99.90;;;;;;4969020;28;20224;-87
2022/09/14 12:15:24;;;;;;;3.92;0.65;;;22.50;99.90;;;;;;4968625;28;20556;-85
2022/09/14 12:18:22;;;;;;;1.40;0.60;;;22.10;99.90;;;;;;4968781;28;20188;-87
2022/09/14 12:21:20;;;;;;;5.32;0.93;;;22.30;99.90;;;;;;4969256;28;20670;-86
2022/09/14 12:23:50;;;;;;;2.97;0.50;;;22.40;99.90;;;;;;4969511;28;20217;-85
2022/09/14 12:26:16;;;;;;;0.80;0.68;;;23.20;99.90;;;;;;4969719;28;20220;-86
2022/09/14 12:28:49;;;;;;;0.50;0.45;;;22.70;99.90;;;;;;4969237;28;20235;-86
2022/09/14 12:31:55;;;;;;;5.32;0.88;;;22.50;99.90;;;;;;4969541;28;21012;-87
2022/09/14 12:34:23;;;;;;;0.40;0.35;;;22.00;99.90;;;;;;4966224;28;20582;-86
2022/09/14 12:36:49;;;;;;;0.70;0.50;;;22.40;99.90;;;;;;4952943;28;20717;-85
2022/09/14 12:39:35;;;;;;;1.25;0.95;;;22.30;99.90;;;;;;4969300;28;20197;-87
2022/09/14 12:42:30;;;;;;;1.58;0.93;;;21.60;99.90;;;;;;4968804;28;20204;-87
2022/09/14 12:44:56;;;;;;;1.60;0.50;;;21.50;99.90;;;;;;4971076;28;20250;-87
2022/09/14 12:47:24;;;;;;;1.65;0.82;;;21.70;99.90;;;;;;4969492;28;20323;-88
2022/09/14 12:49:53;;;;;;;1.95;0.77;;;22.00;99.90;;;;;;4969072;28;20212;-88
2022/09/14 12:52:46;;;;;;;1.08;0.30;;;22.20;99.90;;;;;;4968791;28;20208;-87
2022/09/14 12:55:24;;;;;;;1.70;0.50;;;22.00;99.90;;;;;;4969538;28;20697;-87
2022/09/14 12:58:13;;;;;;;2.53;0.50;;;21.80;99.90;;;;;;4968829;28;20219;-85
2022/09/14 13:01:22;;;;;;;5.32;0.88;;;22.00;99.90;;;;;;4968985;28;20220;-87
2022/09/14 13:03:51;;;;;;;2.17;0.85;;;22.70;99.90;;;;;;4966358;28;20216;-87
2022/09/14 13:06:18;;;;;;;3.47;1.10;;;22.20;99.90;;;;;;4985066;28;20196;-87
2022/09/14 13:08:47;;;;;;;0.47;0.38;;;21.80;99.90;;;;;;4953188;28;20228;-86
2022/09/14 13:11:21;;;;;;;1.65;0.77;;;21.70;99.90;;;;;;4968899;28;20854;-86
2022/09/14 13:13:47;;;;;;;1.08;0.50;;;22.00;99.90;;;;;;4968539;28;20221;-87
2022/09/14 13:16:20;;;;;;;2.90;0.85;;;22.30;99.90;;;;;;4969768;28;20263;-86
2022/09/14 13:18:46;;;;;;;2.03;0.80;;;22.50;99.90;;;;;;4969892;28;20220;-86